sensor_id;sensor_type;location;lat;lon;timestamp;P1;durP1;ratioP1;P2;durP2;ratioP2
68821;SDS011;55834;50.870;4.606;2023-10-08T00:01:34;3.05;;;2.05;;
68821;SDS011;55834;50.870;4.606;2023-10-08T00:04:00;3.78;;;1.98;;
68821;SDS011;55834;50.870;4.606;2023-10-08T00:06:29;4.13;;;2.28;;
68821;SDS011;55834;50.870;4.606;2023-10-08T00:08:55;3.67;;;1.80;;
68821;SDS011;55834;50.870;4.606;2023-10-08T00:11:25;3.83;;;2.08;;
68821;SDS011;55834;50.870;4.606;2023-10-08T00:13:51;2.95;;;1.85;;
68821;SDS011;55834;50.870;4.606;2023-10-08T00:16:21;4.40;;;2.05;;
68821;SDS011;55834;50.870;4.606;2023-10-08T00:18:47;5.50;;;2.30;;
68821;SDS011;55834;50.870;4.606;2023-10-08T00:21:19;4.00;;;1.98;;
68821;SDS011;55834;50.870;4.606;2023-10-08T00:23:53;4.05;;;2.05;;
68821;SDS011;55834;50.870;4.606;2023-10-08T00:26:24;4.57;;;2.08;;
68821;SDS011;55834;50.870;4.606;2023-10-08T00:28:57;4.60;;;1.88;;
68821;SDS011;55834;50.870;4.606;2023-10-08T00:31:25;3.33;;;2.05;;
68821;SDS011;55834;50.870;4.606;2023-10-08T00:33:55;3.75;;;2.05;;
68821;SDS011;55834;50.870;4.606;2023-10-08T00:36:21;5.40;;;2.75;;
68821;SDS011;55834;50.870;4.606;2023-10-08T00:38:49;3.78;;;2.28;;
68821;SDS011;55834;50.870;4.606;2023-10-08T00:41:25;3.70;;;1.73;;
68821;SDS011;55834;50.870;4.606;2023-10-08T00:43:55;5.35;;;2.25;;
68821;SDS011;55834;50.870;4.606;2023-10-08T00:46:22;6.10;;;3.10;;
68821;SDS011;55834;50.870;4.606;2023-10-08T00:48:51;3.17;;;1.67;;
68821;SDS011;55834;50.870;4.606;2023-10-08T00:51:24;5.75;;;2.17;;
68821;SDS011;55834;50.870;4.606;2023-10-08T00:54:05;3.67;;;1.80;;
68821;SDS011;55834;50.870;4.606;2023-10-08T00:56:34;5.20;;;1.60;;
68821;SDS011;55834;50.870;4.606;2023-10-08T00:59:29;3.95;;;2.13;;
68821;SDS011;55834;50.870;4.606;2023-10-08T01:02:02;3.83;;;2.17;;
68821;SDS011;55834;50.870;4.606;2023-10-08T01:04:31;2.50;;;1.67;;
68821;SDS011;55834;50.870;4.606;2023-10-08T01:07:03;3.45;;;1.70;;
68821;SDS011;55834;50.870;4.606;2023-10-08T01:09:41;4.93;;;1.80;;
68821;SDS011;55834;50.870;4.606;2023-10-08T01:14:59;4.50;;;1.98;;
68821;SDS011;55834;50.870;4.606;2023-10-08T01:17:48;5.82;;;2.50;;
68821;SDS011;55834;50.870;4.606;2023-10-08T01:20:23;4.50;;;2.45;;
68821;SDS011;55834;50.870;4.606;2023-10-08T01:22:58;4.88;;;1.80;;
68821;SDS011;55834;50.870;4.606;2023-10-08T01:25:23;3.05;;;2.17;;
68821;SDS011;55834;50.870;4.606;2023-10-08T01:27:55;5.82;;;2.05;;
68821;SDS011;55834;50.870;4.606;2023-10-08T01:30:21;3.35;;;2.22;;
68821;SDS011;55834;50.870;4.606;2023-10-08T01:32:46;4.35;;;2.10;;
68821;SDS011;55834;50.870;4.606;2023-10-08T01:35:12;5.63;;;2.10;;
68821;SDS011;55834;50.870;4.606;2023-10-08T01:37:51;3.72;;;2.38;;
68821;SDS011;55834;50.870;4.606;2023-10-08T01:40:17;3.65;;;2.03;;
68821;SDS011;55834;50.870;4.606;2023-10-08T01:42:43;3.95;;;2.10;;
68821;SDS011;55834;50.870;4.606;2023-10-08T01:45:09;3.95;;;2.28;;
68821;SDS011;55834;50.870;4.606;2023-10-08T01:47:38;6.68;;;1.98;;
68821;SDS011;55834;50.870;4.606;2023-10-08T01:50:04;3.50;;;1.95;;
68821;SDS011;55834;50.870;4.606;2023-10-08T01:52:32;2.72;;;1.65;;
68821;SDS011;55834;50.870;4.606;2023-10-08T01:57:24;2.13;;;1.30;;
68821;SDS011;55834;50.870;4.606;2023-10-08T01:59:50;3.88;;;1.80;;
68821;SDS011;55834;50.870;4.606;2023-10-08T02:02:15;3.77;;;2.07;;
68821;SDS011;55834;50.870;4.606;2023-10-08T02:04:41;2.92;;;2.03;;
68821;SDS011;55834;50.870;4.606;2023-10-08T02:07:07;6.53;;;2.00;;
68821;SDS011;55834;50.870;4.606;2023-10-08T02:09:39;4.82;;;2.15;;
68821;SDS011;55834;50.870;4.606;2023-10-08T02:14:30;6.10;;;2.30;;
68821;SDS011;55834;50.870;4.606;2023-10-08T02:16:57;5.78;;;2.42;;
68821;SDS011;55834;50.870;4.606;2023-10-08T02:19:28;6.65;;;2.60;;
68821;SDS011;55834;50.870;4.606;2023-10-08T02:21:54;5.75;;;1.95;;
68821;SDS011;55834;50.870;4.606;2023-10-08T02:24:21;6.97;;;2.50;;
68821;SDS011;55834;50.870;4.606;2023-10-08T02:26:49;6.93;;;1.85;;
68821;SDS011;55834;50.870;4.606;2023-10-08T02:29:15;4.20;;;2.17;;
68821;SDS011;55834;50.870;4.606;2023-10-08T02:31:41;5.32;;;2.40;;
68821;SDS011;55834;50.870;4.606;2023-10-08T02:34:06;2.72;;;1.58;;
68821;SDS011;55834;50.870;4.606;2023-10-08T02:36:38;5.90;;;2.03;;
68821;SDS011;55834;50.870;4.606;2023-10-08T02:39:07;6.10;;;2.58;;
68821;SDS011;55834;50.870;4.606;2023-10-08T02:41:43;3.65;;;1.80;;
68821;SDS011;55834;50.870;4.606;2023-10-08T02:44:12;4.38;;;2.53;;
68821;SDS011;55834;50.870;4.606;2023-10-08T02:46:41;4.07;;;2.28;;
68821;SDS011;55834;50.870;4.606;2023-10-08T02:49:12;3.58;;;2.45;;
68821;SDS011;55834;50.870;4.606;2023-10-08T02:51:51;3.08;;;1.88;;
68821;SDS011;55834;50.870;4.606;2023-10-08T02:54:18;3.67;;;1.90;;
68821;SDS011;55834;50.870;4.606;2023-10-08T02:56:51;3.65;;;2.20;;
68821;SDS011;55834;50.870;4.606;2023-10-08T02:59:20;4.75;;;2.50;;
68821;SDS011;55834;50.870;4.606;2023-10-08T03:01:49;5.13;;;2.90;;
68821;SDS011;55834;50.870;4.606;2023-10-08T03:04:21;3.75;;;2.03;;
68821;SDS011;55834;50.870;4.606;2023-10-08T03:06:48;8.70;;;2.53;;
68821;SDS011;55834;50.870;4.606;2023-10-08T03:09:21;5.03;;;2.20;;
68821;SDS011;55834;50.870;4.606;2023-10-08T03:11:57;2.65;;;1.70;;
68821;SDS011;55834;50.870;4.606;2023-10-08T03:14:23;8.90;;;2.85;;
68821;SDS011;55834;50.870;4.606;2023-10-08T03:16:51;3.83;;;1.75;;
68821;SDS011;55834;50.870;4.606;2023-10-08T03:19:21;2.67;;;1.92;;
68821;SDS011;55834;50.870;4.606;2023-10-08T03:21:47;3.65;;;1.70;;
68821;SDS011;55834;50.870;4.606;2023-10-08T03:24:19;3.10;;;1.70;;
68821;SDS011;55834;50.870;4.606;2023-10-08T03:26:59;2.63;;;1.58;;
68821;SDS011;55834;50.870;4.606;2023-10-08T03:29:34;4.40;;;1.75;;
68821;SDS011;55834;50.870;4.606;2023-10-08T03:32:10;7.60;;;2.40;;
68821;SDS011;55834;50.870;4.606;2023-10-08T03:34:43;5.68;;;2.42;;
68821;SDS011;55834;50.870;4.606;2023-10-08T03:37:16;4.18;;;1.90;;
68821;SDS011;55834;50.870;4.606;2023-10-08T03:39:50;5.70;;;1.90;;
68821;SDS011;55834;50.870;4.606;2023-10-08T03:42:50;6.13;;;2.35;;
68821;SDS011;55834;50.870;4.606;2023-10-08T03:45:16;4.65;;;2.10;;
68821;SDS011;55834;50.870;4.606;2023-10-08T03:48:02;5.00;;;2.47;;
68821;SDS011;55834;50.870;4.606;2023-10-08T03:50:31;4.82;;;2.00;;
68821;SDS011;55834;50.870;4.606;2023-10-08T03:53:07;4.43;;;2.10;;
68821;SDS011;55834;50.870;4.606;2023-10-08T03:55:39;3.38;;;2.10;;
68821;SDS011;55834;50.870;4.606;2023-10-08T03:58:07;4.88;;;2.00;;
68821;SDS011;55834;50.870;4.606;2023-10-08T04:00:53;4.10;;;2.10;;
68821;SDS011;55834;50.870;4.606;2023-10-08T04:03:33;4.22;;;1.70;;
68821;SDS011;55834;50.870;4.606;2023-10-08T04:06:30;5.82;;;2.47;;
68821;SDS011;55834;50.870;4.606;2023-10-08T04:08:59;4.30;;;1.88;;
68821;SDS011;55834;50.870;4.606;2023-10-08T04:11:35;3.75;;;2.25;;
68821;SDS011;55834;50.870;4.606;2023-10-08T04:14:16;3.85;;;1.58;;
68821;SDS011;55834;50.870;4.606;2023-10-08T04:16:45;5.47;;;2.15;;
68821;SDS011;55834;50.870;4.606;2023-10-08T04:19:11;4.28;;;2.30;;
68821;SDS011;55834;50.870;4.606;2023-10-08T04:21:37;5.30;;;2.55;;
68821;SDS011;55834;50.870;4.606;2023-10-08T04:24:06;5.10;;;1.88;;
68821;SDS011;55834;50.870;4.606;2023-10-08T04:26:33;2.83;;;1.95;;
68821;SDS011;55834;50.870;4.606;2023-10-08T04:29:00;4.68;;;2.17;;
68821;SDS011;55834;50.870;4.606;2023-10-08T04:31:31;5.20;;;2.40;;
68821;SDS011;55834;50.870;4.606;2023-10-08T04:34:04;7.75;;;3.25;;
68821;SDS011;55834;50.870;4.606;2023-10-08T04:36:45;3.45;;;2.35;;
68821;SDS011;55834;50.870;4.606;2023-10-08T04:39:14;3.92;;;2.15;;
68821;SDS011;55834;50.870;4.606;2023-10-08T04:41:46;4.68;;;2.33;;
68821;SDS011;55834;50.870;4.606;2023-10-08T04:46:42;5.28;;;2.45;;
68821;SDS011;55834;50.870;4.606;2023-10-08T04:49:11;5.20;;;1.88;;
68821;SDS011;55834;50.870;4.606;2023-10-08T04:52:02;3.45;;;2.13;;
68821;SDS011;55834;50.870;4.606;2023-10-08T04:54:43;7.38;;;2.25;;
68821;SDS011;55834;50.870;4.606;2023-10-08T04:57:19;5.05;;;2.10;;
68821;SDS011;55834;50.870;4.606;2023-10-08T04:59:51;4.75;;;2.05;;
68821;SDS011;55834;50.870;4.606;2023-10-08T05:02:17;4.40;;;2.65;;
68821;SDS011;55834;50.870;4.606;2023-10-08T05:04:47;3.90;;;2.47;;
68821;SDS011;55834;50.870;4.606;2023-10-08T05:07:20;5.07;;;2.33;;
68821;SDS011;55834;50.870;4.606;2023-10-08T05:10:05;2.80;;;2.20;;
68821;SDS011;55834;50.870;4.606;2023-10-08T05:12:31;3.45;;;1.90;;
68821;SDS011;55834;50.870;4.606;2023-10-08T05:15:03;4.38;;;2.17;;
68821;SDS011;55834;50.870;4.606;2023-10-08T05:17:42;5.63;;;2.25;;
68821;SDS011;55834;50.870;4.606;2023-10-08T05:20:15;3.70;;;1.90;;
68821;SDS011;55834;50.870;4.606;2023-10-08T05:23:14;6.22;;;2.25;;
68821;SDS011;55834;50.870;4.606;2023-10-08T05:26:02;6.28;;;2.78;;
68821;SDS011;55834;50.870;4.606;2023-10-08T05:28:31;3.97;;;2.15;;
68821;SDS011;55834;50.870;4.606;2023-10-08T05:31:07;4.53;;;2.33;;
68821;SDS011;55834;50.870;4.606;2023-10-08T05:33:39;4.75;;;2.08;;
68821;SDS011;55834;50.870;4.606;2023-10-08T05:36:11;4.93;;;2.60;;
68821;SDS011;55834;50.870;4.606;2023-10-08T05:38:43;3.75;;;2.10;;
68821;SDS011;55834;50.870;4.606;2023-10-08T05:41:24;5.75;;;2.75;;
68821;SDS011;55834;50.870;4.606;2023-10-08T05:43:53;7.60;;;2.75;;
68821;SDS011;55834;50.870;4.606;2023-10-08T05:46:39;4.75;;;2.13;;
68821;SDS011;55834;50.870;4.606;2023-10-08T05:49:16;3.88;;;2.00;;
68821;SDS011;55834;50.870;4.606;2023-10-08T05:51:51;3.05;;;1.98;;
68821;SDS011;55834;50.870;4.606;2023-10-08T05:54:20;5.13;;;2.08;;
68821;SDS011;55834;50.870;4.606;2023-10-08T05:57:09;5.75;;;2.20;;
68821;SDS011;55834;50.870;4.606;2023-10-08T05:59:44;4.43;;;2.13;;
68821;SDS011;55834;50.870;4.606;2023-10-08T06:02:23;4.25;;;2.25;;
68821;SDS011;55834;50.870;4.606;2023-10-08T06:05:05;3.67;;;2.00;;
68821;SDS011;55834;50.870;4.606;2023-10-08T06:10:16;4.53;;;2.30;;
68821;SDS011;55834;50.870;4.606;2023-10-08T06:13:12;4.70;;;2.30;;
68821;SDS011;55834;50.870;4.606;2023-10-08T06:15:42;3.42;;;1.98;;
68821;SDS011;55834;50.870;4.606;2023-10-08T06:18:29;4.47;;;2.63;;
68821;SDS011;55834;50.870;4.606;2023-10-08T06:21:03;3.70;;;2.38;;
68821;SDS011;55834;50.870;4.606;2023-10-08T06:23:37;4.78;;;2.55;;
68821;SDS011;55834;50.870;4.606;2023-10-08T06:26:04;9.00;;;3.42;;
68821;SDS011;55834;50.870;4.606;2023-10-08T06:28:36;3.28;;;2.42;;
68821;SDS011;55834;50.870;4.606;2023-10-08T06:31:03;4.97;;;3.25;;
68821;SDS011;55834;50.870;4.606;2023-10-08T06:33:32;5.57;;;3.00;;
68821;SDS011;55834;50.870;4.606;2023-10-08T06:36:02;3.78;;;2.83;;
68821;SDS011;55834;50.870;4.606;2023-10-08T06:38:45;6.45;;;2.88;;
68821;SDS011;55834;50.870;4.606;2023-10-08T06:41:14;5.13;;;2.70;;
68821;SDS011;55834;50.870;4.606;2023-10-08T06:43:43;3.20;;;2.30;;
68821;SDS011;55834;50.870;4.606;2023-10-08T06:46:15;3.88;;;2.03;;
68821;SDS011;55834;50.870;4.606;2023-10-08T06:48:44;6.70;;;2.45;;
68821;SDS011;55834;50.870;4.606;2023-10-08T06:51:11;17.52;;;2.67;;
68821;SDS011;55834;50.870;4.606;2023-10-08T06:53:43;5.50;;;2.28;;
68821;SDS011;55834;50.870;4.606;2023-10-08T06:56:13;5.47;;;2.05;;
68821;SDS011;55834;50.870;4.606;2023-10-08T06:58:40;4.38;;;2.50;;
68821;SDS011;55834;50.870;4.606;2023-10-08T07:01:13;5.53;;;2.10;;
68821;SDS011;55834;50.870;4.606;2023-10-08T07:03:46;4.00;;;2.20;;
68821;SDS011;55834;50.870;4.606;2023-10-08T07:06:14;5.05;;;2.42;;
68821;SDS011;55834;50.870;4.606;2023-10-08T07:08:51;6.43;;;2.33;;
68821;SDS011;55834;50.870;4.606;2023-10-08T07:11:20;3.08;;;1.90;;
68821;SDS011;55834;50.870;4.606;2023-10-08T07:13:46;2.53;;;1.88;;
68821;SDS011;55834;50.870;4.606;2023-10-08T07:16:12;3.42;;;2.10;;
68821;SDS011;55834;50.870;4.606;2023-10-08T07:18:38;3.60;;;1.67;;
68821;SDS011;55834;50.870;4.606;2023-10-08T07:21:04;3.90;;;2.15;;
68821;SDS011;55834;50.870;4.606;2023-10-08T07:23:37;5.07;;;1.88;;
68821;SDS011;55834;50.870;4.606;2023-10-08T07:26:18;4.10;;;2.00;;
68821;SDS011;55834;50.870;4.606;2023-10-08T07:28:49;5.32;;;2.13;;
68821;SDS011;55834;50.870;4.606;2023-10-08T07:31:17;3.75;;;1.23;;
68821;SDS011;55834;50.870;4.606;2023-10-08T07:33:48;2.85;;;2.03;;
68821;SDS011;55834;50.870;4.606;2023-10-08T07:36:40;3.78;;;1.58;;
68821;SDS011;55834;50.870;4.606;2023-10-08T07:39:07;2.22;;;1.73;;
68821;SDS011;55834;50.870;4.606;2023-10-08T07:41:34;3.60;;;1.73;;
68821;SDS011;55834;50.870;4.606;2023-10-08T07:43:59;5.18;;;2.35;;
68821;SDS011;55834;50.870;4.606;2023-10-08T07:46:25;4.75;;;2.45;;
68821;SDS011;55834;50.870;4.606;2023-10-08T07:48:54;3.97;;;2.50;;
68821;SDS011;55834;50.870;4.606;2023-10-08T07:51:20;3.50;;;1.63;;
68821;SDS011;55834;50.870;4.606;2023-10-08T07:53:49;2.67;;;1.75;;
68821;SDS011;55834;50.870;4.606;2023-10-08T07:56:19;3.88;;;2.28;;
68821;SDS011;55834;50.870;4.606;2023-10-08T07:58:45;2.95;;;1.65;;
68821;SDS011;55834;50.870;4.606;2023-10-08T08:01:10;2.80;;;1.97;;
68821;SDS011;55834;50.870;4.606;2023-10-08T08:03:38;2.38;;;1.60;;
68821;SDS011;55834;50.870;4.606;2023-10-08T08:06:08;6.28;;;2.45;;
68821;SDS011;55834;50.870;4.606;2023-10-08T08:08:37;3.67;;;1.92;;
68821;SDS011;55834;50.870;4.606;2023-10-08T08:11:07;3.72;;;2.00;;
68821;SDS011;55834;50.870;4.606;2023-10-08T08:13:42;5.47;;;2.22;;
68821;SDS011;55834;50.870;4.606;2023-10-08T08:16:12;5.82;;;3.05;;
68821;SDS011;55834;50.870;4.606;2023-10-08T08:18:45;5.25;;;2.92;;
68821;SDS011;55834;50.870;4.606;2023-10-08T08:21:11;5.93;;;2.75;;
68821;SDS011;55834;50.870;4.606;2023-10-08T08:23:44;3.55;;;1.92;;
68821;SDS011;55834;50.870;4.606;2023-10-08T08:26:24;4.43;;;2.17;;
68821;SDS011;55834;50.870;4.606;2023-10-08T08:28:54;6.75;;;3.38;;
68821;SDS011;55834;50.870;4.606;2023-10-08T08:31:29;5.72;;;3.25;;
68821;SDS011;55834;50.870;4.606;2023-10-08T08:34:00;4.90;;;2.60;;
68821;SDS011;55834;50.870;4.606;2023-10-08T08:36:39;3.40;;;2.05;;
68821;SDS011;55834;50.870;4.606;2023-10-08T08:39:11;4.47;;;2.22;;
68821;SDS011;55834;50.870;4.606;2023-10-08T08:41:37;9.27;;;2.65;;
68821;SDS011;55834;50.870;4.606;2023-10-08T08:44:03;4.47;;;2.50;;
68821;SDS011;55834;50.870;4.606;2023-10-08T08:46:35;4.63;;;2.60;;
68821;SDS011;55834;50.870;4.606;2023-10-08T08:49:02;5.22;;;2.72;;
68821;SDS011;55834;50.870;4.606;2023-10-08T08:51:30;3.75;;;2.47;;
68821;SDS011;55834;50.870;4.606;2023-10-08T08:56:24;4.55;;;2.22;;
68821;SDS011;55834;50.870;4.606;2023-10-08T08:58:51;7.72;;;2.85;;
68821;SDS011;55834;50.870;4.606;2023-10-08T09:01:17;6.25;;;2.85;;
68821;SDS011;55834;50.870;4.606;2023-10-08T09:03:44;6.18;;;3.67;;
68821;SDS011;55834;50.870;4.606;2023-10-08T09:06:13;3.63;;;2.85;;
68821;SDS011;55834;50.870;4.606;2023-10-08T09:08:38;5.93;;;2.97;;
68821;SDS011;55834;50.870;4.606;2023-10-08T09:11:07;5.60;;;3.13;;
68821;SDS011;55834;50.870;4.606;2023-10-08T09:13:33;8.70;;;2.78;;
68821;SDS011;55834;50.870;4.606;2023-10-08T09:16:16;8.32;;;3.05;;
68821;SDS011;55834;50.870;4.606;2023-10-08T09:18:46;5.38;;;1.98;;
68821;SDS011;55834;50.870;4.606;2023-10-08T09:21:19;5.03;;;2.40;;
68821;SDS011;55834;50.870;4.606;2023-10-08T09:23:50;10.98;;;3.67;;
68821;SDS011;55834;50.870;4.606;2023-10-08T09:26:17;5.47;;;2.90;;
68821;SDS011;55834;50.870;4.606;2023-10-08T09:28:46;5.22;;;2.83;;
68821;SDS011;55834;50.870;4.606;2023-10-08T09:31:13;7.97;;;2.80;;
68821;SDS011;55834;50.870;4.606;2023-10-08T09:33:39;6.32;;;2.80;;
68821;SDS011;55834;50.870;4.606;2023-10-08T09:36:06;4.68;;;2.47;;
68821;SDS011;55834;50.870;4.606;2023-10-08T09:38:35;6.88;;;2.47;;
68821;SDS011;55834;50.870;4.606;2023-10-08T09:41:02;5.30;;;3.05;;
68821;SDS011;55834;50.870;4.606;2023-10-08T09:43:28;4.57;;;2.60;;
68821;SDS011;55834;50.870;4.606;2023-10-08T09:46:03;8.70;;;4.05;;
68821;SDS011;55834;50.870;4.606;2023-10-08T09:48:38;5.15;;;3.08;;
68821;SDS011;55834;50.870;4.606;2023-10-08T09:51:06;5.07;;;2.50;;
68821;SDS011;55834;50.870;4.606;2023-10-08T09:54:22;6.28;;;3.15;;
68821;SDS011;55834;50.870;4.606;2023-10-08T09:56:28;6.13;;;3.35;;
68821;SDS011;55834;50.870;4.606;2023-10-08T09:58:54;6.28;;;3.78;;
68821;SDS011;55834;50.870;4.606;2023-10-08T10:01:20;8.75;;;3.30;;
68821;SDS011;55834;50.870;4.606;2023-10-08T10:03:47;5.82;;;3.00;;
68821;SDS011;55834;50.870;4.606;2023-10-08T10:06:15;4.45;;;2.63;;
68821;SDS011;55834;50.870;4.606;2023-10-08T10:08:42;5.88;;;3.25;;
68821;SDS011;55834;50.870;4.606;2023-10-08T10:11:08;7.40;;;3.17;;
68821;SDS011;55834;50.870;4.606;2023-10-08T10:13:39;7.22;;;2.88;;
68821;SDS011;55834;50.870;4.606;2023-10-08T10:16:06;6.00;;;2.70;;
68821;SDS011;55834;50.870;4.606;2023-10-08T10:18:34;7.10;;;3.15;;
68821;SDS011;55834;50.870;4.606;2023-10-08T10:21:45;5.50;;;3.33;;
68821;SDS011;55834;50.870;4.606;2023-10-08T10:23:54;10.75;;;4.22;;
68821;SDS011;55834;50.870;4.606;2023-10-08T10:31:41;6.50;;;2.95;;
68821;SDS011;55834;50.870;4.606;2023-10-08T10:34:10;7.93;;;4.03;;
68821;SDS011;55834;50.870;4.606;2023-10-08T10:36:38;7.90;;;3.50;;
68821;SDS011;55834;50.870;4.606;2023-10-08T10:39:05;6.65;;;3.10;;
68821;SDS011;55834;50.870;4.606;2023-10-08T10:42:03;5.53;;;2.35;;
68821;SDS011;55834;50.870;4.606;2023-10-08T10:44:31;7.88;;;3.05;;
68821;SDS011;55834;50.870;4.606;2023-10-08T10:46:58;7.63;;;2.95;;
68821;SDS011;55834;50.870;4.606;2023-10-08T10:49:46;7.30;;;3.00;;
68821;SDS011;55834;50.870;4.606;2023-10-08T10:52:28;9.55;;;4.43;;
68821;SDS011;55834;50.870;4.606;2023-10-08T10:55:06;7.03;;;3.50;;
68821;SDS011;55834;50.870;4.606;2023-10-08T10:57:55;8.52;;;4.00;;
68821;SDS011;55834;50.870;4.606;2023-10-08T11:00:37;7.88;;;3.58;;
68821;SDS011;55834;50.870;4.606;2023-10-08T11:03:06;7.18;;;3.05;;
68821;SDS011;55834;50.870;4.606;2023-10-08T11:05:49;7.22;;;3.90;;
68821;SDS011;55834;50.870;4.606;2023-10-08T11:08:30;7.47;;;3.55;;
68821;SDS011;55834;50.870;4.606;2023-10-08T11:10:59;6.15;;;2.75;;
68821;SDS011;55834;50.870;4.606;2023-10-08T11:13:30;8.68;;;3.58;;
68821;SDS011;55834;50.870;4.606;2023-10-08T11:16:06;7.57;;;3.22;;
68821;SDS011;55834;50.870;4.606;2023-10-08T11:18:35;6.22;;;3.15;;
68821;SDS011;55834;50.870;4.606;2023-10-08T11:21:09;6.28;;;3.05;;
68821;SDS011;55834;50.870;4.606;2023-10-08T11:23:45;5.57;;;3.15;;
68821;SDS011;55834;50.870;4.606;2023-10-08T11:26:17;4.63;;;2.88;;
68821;SDS011;55834;50.870;4.606;2023-10-08T11:28:44;6.72;;;3.50;;
68821;SDS011;55834;50.870;4.606;2023-10-08T11:31:13;8.70;;;3.10;;
68821;SDS011;55834;50.870;4.606;2023-10-08T11:33:45;5.93;;;3.33;;
68821;SDS011;55834;50.870;4.606;2023-10-08T11:36:21;7.82;;;3.75;;
68821;SDS011;55834;50.870;4.606;2023-10-08T11:38:53;9.68;;;3.28;;
68821;SDS011;55834;50.870;4.606;2023-10-08T11:41:25;9.30;;;3.78;;
68821;SDS011;55834;50.870;4.606;2023-10-08T11:43:56;5.78;;;3.40;;
68821;SDS011;55834;50.870;4.606;2023-10-08T11:46:23;8.05;;;3.30;;
68821;SDS011;55834;50.870;4.606;2023-10-08T11:49:12;9.55;;;3.75;;
68821;SDS011;55834;50.870;4.606;2023-10-08T11:51:45;5.47;;;2.90;;
68821;SDS011;55834;50.870;4.606;2023-10-08T11:56:39;12.05;;;3.65;;
68821;SDS011;55834;50.870;4.606;2023-10-08T11:59:05;6.22;;;2.75;;
68821;SDS011;55834;50.870;4.606;2023-10-08T12:01:37;6.07;;;3.00;;
68821;SDS011;55834;50.870;4.606;2023-10-08T12:04:07;7.13;;;3.33;;
68821;SDS011;55834;50.870;4.606;2023-10-08T12:06:38;8.30;;;2.80;;
68821;SDS011;55834;50.870;4.606;2023-10-08T12:09:11;8.60;;;3.35;;
68821;SDS011;55834;50.870;4.606;2023-10-08T12:11:38;6.07;;;2.90;;
68821;SDS011;55834;50.870;4.606;2023-10-08T12:14:04;6.93;;;3.65;;
68821;SDS011;55834;50.870;4.606;2023-10-08T12:16:30;8.10;;;3.25;;
68821;SDS011;55834;50.870;4.606;2023-10-08T12:19:00;7.72;;;3.03;;
68821;SDS011;55834;50.870;4.606;2023-10-08T12:21:26;9.10;;;3.35;;
68821;SDS011;55834;50.870;4.606;2023-10-08T12:23:54;6.35;;;2.97;;
68821;SDS011;55834;50.870;4.606;2023-10-08T12:26:20;6.78;;;3.13;;
68821;SDS011;55834;50.870;4.606;2023-10-08T12:28:46;5.47;;;2.78;;
68821;SDS011;55834;50.870;4.606;2023-10-08T12:31:15;6.00;;;3.00;;
68821;SDS011;55834;50.870;4.606;2023-10-08T12:33:42;8.13;;;3.67;;
68821;SDS011;55834;50.870;4.606;2023-10-08T12:36:11;7.13;;;2.70;;
68821;SDS011;55834;50.870;4.606;2023-10-08T12:38:37;8.23;;;3.40;;
68821;SDS011;55834;50.870;4.606;2023-10-08T12:41:06;7.15;;;3.22;;
68821;SDS011;55834;50.870;4.606;2023-10-08T12:43:39;7.78;;;3.28;;
68821;SDS011;55834;50.870;4.606;2023-10-08T12:46:10;11.10;;;2.80;;
68821;SDS011;55834;50.870;4.606;2023-10-08T12:48:43;5.13;;;2.90;;
68821;SDS011;55834;50.870;4.606;2023-10-08T12:51:09;5.25;;;3.17;;
68821;SDS011;55834;50.870;4.606;2023-10-08T12:53:36;9.35;;;3.92;;
68821;SDS011;55834;50.870;4.606;2023-10-08T12:56:08;6.85;;;3.47;;
68821;SDS011;55834;50.870;4.606;2023-10-08T12:58:40;6.25;;;3.45;;
68821;SDS011;55834;50.870;4.606;2023-10-08T13:01:12;9.63;;;4.18;;
68821;SDS011;55834;50.870;4.606;2023-10-08T13:03:39;5.57;;;3.33;;
68821;SDS011;55834;50.870;4.606;2023-10-08T13:06:09;5.35;;;3.30;;
68821;SDS011;55834;50.870;4.606;2023-10-08T13:08:46;5.57;;;3.65;;
68821;SDS011;55834;50.870;4.606;2023-10-08T13:11:12;8.05;;;3.85;;
68821;SDS011;55834;50.870;4.606;2023-10-08T13:13:37;6.75;;;3.17;;
68821;SDS011;55834;50.870;4.606;2023-10-08T13:16:03;6.63;;;3.33;;
68821;SDS011;55834;50.870;4.606;2023-10-08T13:18:32;4.68;;;2.75;;
68821;SDS011;55834;50.870;4.606;2023-10-08T13:20:58;7.30;;;3.92;;
68821;SDS011;55834;50.870;4.606;2023-10-08T13:23:24;8.15;;;3.47;;
68821;SDS011;55834;50.870;4.606;2023-10-08T13:25:50;7.18;;;3.67;;
68821;SDS011;55834;50.870;4.606;2023-10-08T13:28:23;12.70;;;3.80;;
68821;SDS011;55834;50.870;4.606;2023-10-08T13:30:51;7.35;;;3.63;;
68821;SDS011;55834;50.870;4.606;2023-10-08T13:33:18;6.43;;;3.25;;
68821;SDS011;55834;50.870;4.606;2023-10-08T13:35:45;5.32;;;3.60;;
68821;SDS011;55834;50.870;4.606;2023-10-08T13:38:10;4.97;;;2.97;;
68821;SDS011;55834;50.870;4.606;2023-10-08T13:40:38;6.85;;;4.03;;
68821;SDS011;55834;50.870;4.606;2023-10-08T13:43:08;9.23;;;4.40;;
68821;SDS011;55834;50.870;4.606;2023-10-08T13:45:36;8.00;;;4.20;;
68821;SDS011;55834;50.870;4.606;2023-10-08T13:48:04;8.18;;;3.83;;
68821;SDS011;55834;50.870;4.606;2023-10-08T13:50:31;5.30;;;3.28;;
68821;SDS011;55834;50.870;4.606;2023-10-08T13:52:56;5.15;;;3.42;;
68821;SDS011;55834;50.870;4.606;2023-10-08T13:55:23;6.07;;;2.83;;
68821;SDS011;55834;50.870;4.606;2023-10-08T13:57:50;5.60;;;2.88;;
68821;SDS011;55834;50.870;4.606;2023-10-08T14:00:16;6.22;;;3.20;;
68821;SDS011;55834;50.870;4.606;2023-10-08T14:02:50;6.97;;;3.55;;
68821;SDS011;55834;50.870;4.606;2023-10-08T14:05:17;5.18;;;2.72;;
68821;SDS011;55834;50.870;4.606;2023-10-08T14:07:46;4.82;;;3.00;;
68821;SDS011;55834;50.870;4.606;2023-10-08T14:10:14;8.73;;;3.28;;
68821;SDS011;55834;50.870;4.606;2023-10-08T14:12:44;6.22;;;2.92;;
68821;SDS011;55834;50.870;4.606;2023-10-08T14:15:14;7.85;;;3.40;;
68821;SDS011;55834;50.870;4.606;2023-10-08T14:17:43;6.60;;;3.58;;
68821;SDS011;55834;50.870;4.606;2023-10-08T14:20:13;5.80;;;3.30;;
68821;SDS011;55834;50.870;4.606;2023-10-08T14:22:40;8.82;;;3.70;;
68821;SDS011;55834;50.870;4.606;2023-10-08T14:25:09;7.25;;;3.58;;
68821;SDS011;55834;50.870;4.606;2023-10-08T14:27:38;5.97;;;3.72;;
68821;SDS011;55834;50.870;4.606;2023-10-08T14:30:16;6.63;;;3.70;;
68821;SDS011;55834;50.870;4.606;2023-10-08T14:32:46;8.75;;;4.10;;
68821;SDS011;55834;50.870;4.606;2023-10-08T14:35:12;7.10;;;3.67;;
68821;SDS011;55834;50.870;4.606;2023-10-08T14:37:56;4.80;;;3.15;;
68821;SDS011;55834;50.870;4.606;2023-10-08T14:40:40;7.75;;;3.80;;
68821;SDS011;55834;50.870;4.606;2023-10-08T14:43:24;5.85;;;3.20;;
68821;SDS011;55834;50.870;4.606;2023-10-08T14:45:50;6.40;;;3.77;;
68821;SDS011;55834;50.870;4.606;2023-10-08T14:48:17;8.63;;;3.47;;
68821;SDS011;55834;50.870;4.606;2023-10-08T14:50:43;7.88;;;3.22;;
68821;SDS011;55834;50.870;4.606;2023-10-08T14:53:08;8.15;;;3.50;;
68821;SDS011;55834;50.870;4.606;2023-10-08T14:55:37;6.63;;;3.45;;
68821;SDS011;55834;50.870;4.606;2023-10-08T14:58:06;6.00;;;2.70;;
68821;SDS011;55834;50.870;4.606;2023-10-08T15:00:36;8.95;;;3.90;;
68821;SDS011;55834;50.870;4.606;2023-10-08T15:03:03;5.93;;;3.38;;
68821;SDS011;55834;50.870;4.606;2023-10-08T15:05:29;6.90;;;3.00;;
68821;SDS011;55834;50.870;4.606;2023-10-08T15:07:56;6.85;;;3.20;;
68821;SDS011;55834;50.870;4.606;2023-10-08T15:10:22;4.75;;;3.22;;
68821;SDS011;55834;50.870;4.606;2023-10-08T15:12:47;7.57;;;4.20;;
68821;SDS011;55834;50.870;4.606;2023-10-08T15:15:14;11.35;;;4.63;;
68821;SDS011;55834;50.870;4.606;2023-10-08T15:17:43;10.77;;;3.92;;
68821;SDS011;55834;50.870;4.606;2023-10-08T15:20:10;9.85;;;4.10;;
68821;SDS011;55834;50.870;4.606;2023-10-08T15:22:41;7.45;;;3.60;;
68821;SDS011;55834;50.870;4.606;2023-10-08T15:25:10;6.15;;;3.75;;
68821;SDS011;55834;50.870;4.606;2023-10-08T15:27:37;6.97;;;4.45;;
68821;SDS011;55834;50.870;4.606;2023-10-08T15:30:08;6.30;;;3.78;;
68821;SDS011;55834;50.870;4.606;2023-10-08T15:32:38;5.38;;;3.13;;
68821;SDS011;55834;50.870;4.606;2023-10-08T15:35:09;5.40;;;3.10;;